createdAt,value
2022-09-02T00:01:38.141Z,86.19
2022-09-02T00:04:15.935Z,85.91
2022-09-02T00:06:44.400Z,86.02
2022-09-02T00:09:13.948Z,85.56
2022-09-02T00:27:43.935Z,86.05
2022-09-02T00:30:11.500Z,86.24
2022-09-02T00:32:39.016Z,85.97
2022-09-02T00:35:37.775Z,86.13
2022-09-02T00:38:05.539Z,86.24
2022-09-02T00:40:33.818Z,86.26
2022-09-02T00:43:01.351Z,86.44
2022-09-02T00:45:28.349Z,86.47
2022-09-02T00:47:55.532Z,86.51
2022-09-02T00:50:30.483Z,86.80
2022-09-02T00:53:02.707Z,87.34
2022-09-02T00:55:34.858Z,86.75
2022-09-02T00:58:14.478Z,87.20
2022-09-02T01:00:44.964Z,86.91
2022-09-02T01:03:18.226Z,87.19
2022-09-02T01:05:49.867Z,87.02
2022-09-02T01:08:20.374Z,86.86
2022-09-02T01:10:48.655Z,86.61
2022-09-02T01:13:21.316Z,86.16
2022-09-02T01:15:53.996Z,85.99
2022-09-02T01:18:25.450Z,86.05
2022-09-02T01:20:52.585Z,86.10
2022-09-02T01:23:19.561Z,86.44
2022-09-02T01:25:47.251Z,86.39
2022-09-02T01:28:17.276Z,86.41
2022-09-02T01:30:51.014Z,86.51
2022-09-02T01:33:20.259Z,86.37
2022-09-02T01:35:49.860Z,86.57
2022-09-02T01:38:17.132Z,86.41
2022-09-02T01:40:44.520Z,86.46
2022-09-02T01:43:17.262Z,86.38
2022-09-02T01:45:48.757Z,86.21
2022-09-02T01:48:21.264Z,86.13
2022-09-02T01:50:53.371Z,85.96
2022-09-02T01:53:20.558Z,85.86
2022-09-02T01:55:47.625Z,85.91
2022-09-02T01:58:14.701Z,85.91
2022-09-02T02:00:41.743Z,85.72
2022-09-02T02:03:08.862Z,86.30
2022-09-02T02:05:39.016Z,86.25
2022-09-02T02:08:07.569Z,86.33
2022-09-02T02:10:34.549Z,86.04
2022-09-02T02:13:02.398Z,86.02
2022-09-02T02:17:58.017Z,86.06
2022-09-02T02:20:27.272Z,85.96
2022-09-02T02:22:54.147Z,85.98
2022-09-02T02:25:21.148Z,85.95
2022-09-02T02:27:52.291Z,86.08
2022-09-02T02:30:21.663Z,86.36
2022-09-02T02:32:48.678Z,86.18
2022-09-02T02:35:20.291Z,86.40
2022-09-02T02:37:50.211Z,86.49
2022-09-02T02:40:22.086Z,86.72
2022-09-02T02:42:53.630Z,86.71
2022-09-02T02:45:24.098Z,86.54
2022-09-02T02:47:52.493Z,86.42
2022-09-02T02:50:23.011Z,86.68
2022-09-02T02:52:51.100Z,86.43
2022-09-02T02:55:19.973Z,86.41
2022-09-02T02:57:47.145Z,86.86
2022-09-02T03:00:18.050Z,86.72
2022-09-02T03:02:47.074Z,86.48
2022-09-02T03:05:15.215Z,86.75
2022-09-02T03:07:42.917Z,86.84
2022-09-02T03:10:13.200Z,86.53
2022-09-02T03:12:41.768Z,86.47
2022-09-02T03:15:09.789Z,86.19
2022-09-02T03:17:37.944Z,86.65
2022-09-02T03:20:06.441Z,86.37
2022-09-02T03:22:40.332Z,86.45
2022-09-02T03:25:11.703Z,86.77
2022-09-02T03:27:40.194Z,86.52
2022-09-02T03:30:12.333Z,86.84
2022-09-02T03:32:40.263Z,86.78
2022-09-02T03:35:11.143Z,86.36
2022-09-02T03:37:38.453Z,87.00
2022-09-02T03:40:10.157Z,86.52
2022-09-02T03:42:37.734Z,87.03
2022-09-02T03:45:08.447Z,86.98
2022-09-02T03:47:36.880Z,87.50
2022-09-02T03:50:04.751Z,87.19
2022-09-02T03:52:31.673Z,87.15
2022-09-02T03:54:58.584Z,87.44
2022-09-02T03:57:27.243Z,87.57
2022-09-02T03:59:54.385Z,87.57
2022-09-02T04:02:21.384Z,87.74
2022-09-02T04:04:48.561Z,87.99
2022-09-02T04:07:15.823Z,87.56
2022-09-02T04:09:46.559Z,87.81
2022-09-02T04:12:14.217Z,87.50
2022-09-02T04:14:42.491Z,87.85
2022-09-02T04:17:10.737Z,87.99
2022-09-02T04:19:39.278Z,88.47
2022-09-02T04:22:08.449Z,87.94
2022-09-02T04:24:36.754Z,87.22
2022-09-02T04:27:04.504Z,86.85
2022-09-02T04:29:34.318Z,88.20
2022-09-02T04:32:01.332Z,88.50
2022-09-02T04:34:28.423Z,88.58
2022-09-02T04:36:56.484Z,88.54
2022-09-02T04:39:24.161Z,89.22
2022-09-02T04:41:53.900Z,88.75
2022-09-02T04:44:21.421Z,89.20
2022-09-02T04:46:50.384Z,89.24
2022-09-02T04:49:19.755Z,89.11
2022-09-02T04:51:47.830Z,89.52
2022-09-02T04:54:14.815Z,89.04
2022-09-02T04:56:44.606Z,89.35
2022-09-02T04:59:12.960Z,89.60
2022-09-02T05:01:46.195Z,89.40
2022-09-02T05:04:19.696Z,89.71
2022-09-02T05:06:50.453Z,89.72
2022-09-02T05:09:21.371Z,89.86
2022-09-02T05:11:57.316Z,89.79
2022-09-02T05:14:26.782Z,89.67
2022-09-02T05:16:57.943Z,89.44
2022-09-02T05:19:24.802Z,89.37
2022-09-02T05:21:57.732Z,89.92
2022-09-02T05:24:29.899Z,89.75
2022-09-02T05:27:00.601Z,89.80
2022-09-02T05:29:30.133Z,89.66
2022-09-02T05:31:57.552Z,89.52
2022-09-02T05:34:25.930Z,89.44
2022-09-02T05:36:56.147Z,89.70
2022-09-02T05:39:25.285Z,88.97
2022-09-02T05:41:52.294Z,89.30
2022-09-02T05:44:19.814Z,89.04
2022-09-02T05:46:49.090Z,89.03
2022-09-02T05:49:18.006Z,88.95
2022-09-02T05:51:52.993Z,88.74
2022-09-02T05:54:31.245Z,88.48
2022-09-02T05:57:08.787Z,88.17
2022-09-02T05:59:42.315Z,88.01
2022-09-02T06:02:13.780Z,87.34
2022-09-02T06:04:43.131Z,87.44
2022-09-02T06:07:13.721Z,87.00
2022-09-02T06:09:44.760Z,86.81
2022-09-02T06:12:14.905Z,86.93
2022-09-02T06:14:42.924Z,87.05
2022-09-02T06:17:11.005Z,86.79
2022-09-02T06:19:47.885Z,86.50
2022-09-02T06:22:21.448Z,85.90
2022-09-02T06:24:48.583Z,85.94
2022-09-02T06:27:20.673Z,85.54
2022-09-02T06:29:51.643Z,85.07
2022-09-02T06:32:21.142Z,84.86
2022-09-02T06:34:50.534Z,84.74
2022-09-02T06:37:17.817Z,84.40
2022-09-02T06:39:46.679Z,83.98
2022-09-02T06:42:19.474Z,83.44
2022-09-02T06:45:14.976Z,82.87
2022-09-02T06:47:43.821Z,82.17
2022-09-02T06:50:10.831Z,82.27
2022-09-02T06:52:39.123Z,81.89
2022-09-02T06:55:07.078Z,81.90
2022-09-02T06:57:34.406Z,81.85
2022-09-02T07:00:09.390Z,81.80
2022-09-02T07:02:38.773Z,81.36
2022-09-02T07:05:15.479Z,80.81
2022-09-02T07:07:48.113Z,80.31
2022-09-02T07:10:16.176Z,79.99
2022-09-02T07:12:49.315Z,79.52
2022-09-02T07:15:17.777Z,79.47
2022-09-02T07:17:45.077Z,78.91
2022-09-02T07:20:22.419Z,77.77
2022-09-02T07:22:57.022Z,76.85
2022-09-02T07:25:26.581Z,76.79
2022-09-02T07:27:54.663Z,76.40
2022-09-02T07:30:22.576Z,76.32
2022-09-02T07:32:56.852Z,75.25
2022-09-02T07:35:26.076Z,74.13
2022-09-02T07:37:53.293Z,73.97
2022-09-02T07:40:22.495Z,73.39
2022-09-02T07:42:50.467Z,73.08
2022-09-02T07:45:18.694Z,70.56
2022-09-02T07:47:46.289Z,71.21
2022-09-02T07:50:20.194Z,70.55
2022-09-02T07:52:54.405Z,70.07
2022-09-02T07:55:22.730Z,70.31
2022-09-02T07:57:51.222Z,70.23
2022-09-02T08:00:21.372Z,69.54
2022-09-02T08:02:50.823Z,68.36
2022-09-02T08:05:24.377Z,66.40
2022-09-02T08:07:51.205Z,66.15
2022-09-02T08:10:20.686Z,65.78
2022-09-02T08:12:48.307Z,65.27
2022-09-02T08:15:15.700Z,65.09
2022-09-02T08:17:44.348Z,63.87
2022-09-02T08:20:13.603Z,63.99
2022-09-02T08:22:41.053Z,63.61
2022-09-02T08:25:08.957Z,63.02
2022-09-02T08:27:37.291Z,61.67
2022-09-02T08:30:05.886Z,61.76
2022-09-02T08:32:32.941Z,61.42
2022-09-02T08:35:03.039Z,62.46
2022-09-02T08:37:34.149Z,62.38
2022-09-02T08:40:04.271Z,61.09
2022-09-02T08:42:40.337Z,60.58
2022-09-02T08:45:38.450Z,59.32
2022-09-02T08:48:32.191Z,58.63
2022-09-02T08:51:06.348Z,58.54
2022-09-02T08:54:05.785Z,58.32
2022-09-02T08:56:33.066Z,56.94
2022-09-02T08:59:03.070Z,55.76
2022-09-02T09:01:31.222Z,56.07
2022-09-02T09:04:19.467Z,55.69
2022-09-02T09:07:10.898Z,55.48
2022-09-02T09:09:55.654Z,53.76
2022-09-02T09:12:32.600Z,54.22
2022-09-02T09:15:03.042Z,53.80
2022-09-02T09:17:48.325Z,54.93
2022-09-02T09:20:25.546Z,54.64
2022-09-02T09:22:57.166Z,53.94
2022-09-02T09:25:30.005Z,53.35
2022-09-02T09:27:58.227Z,50.79
2022-09-02T09:30:25.566Z,51.72
2022-09-02T09:32:55.112Z,51.15
2022-09-02T09:35:22.396Z,50.93
2022-09-02T09:37:51.169Z,50.43
2022-09-02T09:40:18.382Z,49.66
2022-09-02T09:42:49.731Z,49.46
2022-09-02T09:45:27.823Z,49.25
2022-09-02T09:48:26.048Z,49.07
2022-09-02T09:50:55.641Z,48.54
2022-09-02T09:53:30.636Z,47.75
2022-09-02T09:56:02.718Z,47.56
2022-09-02T09:58:43.961Z,47.68
2022-09-02T10:01:34.693Z,47.35
2022-09-02T10:04:41.793Z,47.15
2022-09-02T10:06:58.106Z,46.03
2022-09-02T10:09:35.580Z,46.76
2022-09-02T10:12:13.206Z,46.50
2022-09-02T10:14:46.315Z,46.38
2022-09-02T10:17:19.360Z,46.13
2022-09-02T10:19:46.085Z,46.16
2022-09-02T10:22:59.344Z,45.54
2022-09-02T10:25:42.707Z,44.25
2022-09-02T10:28:18.340Z,44.49
2022-09-02T10:30:57.328Z,44.68
2022-09-02T10:33:44.189Z,44.28
2022-09-02T10:36:28.739Z,43.12
2022-09-02T10:39:11.398Z,42.73
2022-09-02T10:41:47.920Z,41.75
2022-09-02T10:44:30.490Z,42.49
2022-09-02T10:47:06.640Z,42.27
2022-09-02T10:49:45.616Z,40.34
2022-09-02T10:52:40.615Z,40.51
2022-09-02T10:55:19.342Z,40.58
2022-09-02T10:57:55.877Z,40.86
2022-09-02T11:00:23.926Z,40.18
2022-09-02T11:02:59.071Z,39.74
2022-09-02T11:05:30.048Z,39.20
2022-09-02T11:08:29.597Z,38.94
2022-09-02T11:11:21.885Z,38.89
2022-09-02T11:14:08.250Z,39.37
2022-09-02T11:16:46.562Z,39.36
2022-09-02T11:19:20.161Z,39.11
2022-09-02T11:22:09.352Z,39.35
2022-09-02T11:24:49.686Z,39.33
2022-09-02T11:27:42.455Z,38.59
2022-09-02T11:30:15.060Z,38.25
2022-09-02T11:32:48.701Z,39.03
2022-09-02T11:35:27.497Z,39.36
2022-09-02T11:38:11.482Z,39.07
2022-09-02T11:44:15.815Z,38.33
2022-09-02T11:46:46.412Z,38.05
2022-09-02T11:49:48.522Z,37.65
2022-09-02T11:52:34.210Z,37.80
2022-09-02T11:55:17.119Z,37.60
2022-09-02T11:57:52.530Z,38.09
2022-09-02T12:00:31.417Z,37.67
2022-09-02T12:03:12.213Z,36.92
2022-09-02T12:06:04.493Z,37.20
2022-09-02T12:08:36.717Z,36.56
2022-09-02T12:11:07.111Z,36.50
2022-09-02T12:13:38.748Z,36.67
2022-09-02T12:16:24.351Z,37.01
2022-09-02T12:18:54.175Z,36.40
2022-09-02T12:21:24.114Z,36.30
2022-09-02T12:23:57.293Z,36.49
2022-09-02T12:26:36.463Z,36.10
2022-09-02T12:29:15.459Z,35.77
2022-09-02T12:31:55.066Z,36.19
2022-09-02T12:34:24.895Z,35.64
2022-09-02T12:36:52.734Z,35.39
2022-09-02T12:39:26.019Z,35.44
2022-09-02T12:41:59.021Z,35.33
2022-09-02T12:45:04.702Z,35.65
2022-09-02T12:47:50.259Z,35.19
2022-09-02T12:50:26.509Z,35.07
2022-09-02T12:53:18.029Z,35.28
2022-09-02T12:55:59.952Z,35.23
2022-09-02T12:58:32.515Z,34.12
2022-09-02T13:01:14.868Z,33.49
2022-09-02T13:03:55.323Z,33.89
2022-09-02T13:06:53.043Z,33.28
2022-09-02T13:09:39.063Z,33.52
2022-09-02T13:12:36.916Z,33.41
2022-09-02T13:15:31.120Z,34.35
2022-09-02T13:18:30.593Z,34.69
2022-09-02T13:21:31.682Z,34.78
2022-09-02T13:24:20.313Z,33.20
2022-09-02T13:27:15.771Z,33.99
2022-09-02T13:29:55.568Z,33.38
2022-09-02T13:32:32.648Z,33.30
2022-09-02T13:35:05.309Z,33.02
2022-09-02T13:37:59.805Z,33.08
2022-09-02T13:40:37.889Z,33.09
2022-09-02T13:43:24.220Z,32.87
2022-09-02T13:45:53.026Z,32.61
2022-09-02T13:48:33.439Z,32.69
2022-09-02T13:51:12.177Z,32.71
2022-09-02T13:53:59.086Z,31.63
2022-09-02T13:56:31.125Z,32.12
2022-09-02T13:58:58.139Z,32.35
2022-09-02T14:01:29.982Z,32.07
2022-09-02T14:03:59.827Z,32.16
2022-09-02T14:06:40.509Z,31.93
2022-09-02T14:09:19.603Z,32.33
2022-09-02T14:11:48.105Z,31.71
2022-09-02T14:14:18.551Z,31.93
2022-09-02T14:16:45.502Z,31.46
2022-09-02T14:19:25.068Z,31.52
2022-09-02T14:21:52.479Z,31.47
2022-09-02T14:24:25.265Z,31.75
2022-09-02T14:26:55.300Z,31.54
2022-09-02T14:29:23.467Z,31.46
2022-09-02T14:32:15.658Z,31.72
2022-09-02T14:34:44.881Z,31.87
2022-09-02T14:37:18.407Z,31.83
2022-09-02T14:40:05.186Z,32.36
2022-09-02T14:42:32.958Z,32.08
2022-09-02T14:45:00.030Z,32.28
2022-09-02T14:47:28.204Z,31.85
2022-09-02T14:49:56.167Z,31.88
2022-09-02T14:52:28.631Z,32.19
2022-09-02T14:54:57.716Z,32.36
2022-09-02T14:57:28.662Z,32.54
2022-09-02T15:00:13.446Z,32.66
2022-09-02T15:02:43.403Z,32.61
2022-09-02T15:05:15.757Z,32.95
2022-09-02T15:07:42.878Z,32.90
2022-09-02T15:10:10.167Z,33.32
2022-09-02T15:13:03.378Z,33.07
2022-09-02T15:15:30.419Z,33.01
2022-09-02T15:17:57.736Z,32.94
2022-09-02T15:20:25.116Z,33.11
2022-09-02T15:22:56.014Z,32.46
2022-09-02T15:25:22.959Z,32.74
2022-09-02T15:27:50.091Z,32.89
2022-09-02T15:30:17.664Z,32.71
2022-09-02T15:32:45.463Z,33.14
2022-09-02T15:35:12.532Z,32.92
2022-09-02T15:37:39.688Z,33.15
2022-09-02T15:40:08.341Z,32.78
2022-09-02T15:42:39.530Z,32.25
2022-09-02T15:45:10.717Z,32.89
2022-09-02T15:47:38.616Z,33.19
2022-09-02T15:50:06.637Z,32.88
2022-09-02T15:52:35.125Z,32.62
2022-09-02T15:55:01.977Z,32.47
2022-09-02T15:57:30.576Z,32.63
2022-09-02T15:59:57.692Z,32.62
2022-09-02T16:02:24.797Z,32.86
2022-09-02T16:04:51.758Z,33.00
2022-09-02T16:07:18.875Z,32.77
2022-09-02T16:09:46.415Z,33.29
2022-09-02T16:12:13.488Z,33.37
2022-09-02T16:14:40.399Z,33.34
2022-09-02T16:17:09.347Z,33.33
2022-09-02T16:19:36.410Z,33.04
2022-09-02T16:22:03.715Z,33.16
2022-09-02T16:24:30.757Z,33.03
2022-09-02T16:26:57.762Z,33.11
2022-09-02T16:29:27.190Z,33.49
2022-09-02T16:32:23.795Z,33.43
2022-09-02T16:34:42.834Z,33.62
2022-09-02T16:37:09.727Z,33.80
2022-09-02T16:39:37.029Z,33.21
2022-09-02T16:42:04.775Z,33.50
2022-09-02T16:44:34.165Z,34.19
2022-09-02T16:47:01.241Z,33.97
2022-09-02T16:49:28.074Z,33.92
2022-09-02T16:51:58.329Z,34.23
2022-09-02T16:54:31.584Z,34.36
2022-09-02T16:57:01.495Z,34.80
2022-09-02T16:59:28.419Z,34.99
2022-09-02T17:01:55.519Z,35.15
2022-09-02T17:04:22.721Z,36.02
2022-09-02T17:06:50.142Z,36.29
2022-09-02T17:09:17.187Z,36.61
2022-09-02T17:11:45.529Z,36.55
2022-09-02T17:14:18.041Z,36.98
2022-09-02T17:16:49.777Z,37.31
2022-09-02T17:19:21.925Z,37.23
2022-09-02T17:21:52.944Z,37.39
2022-09-02T17:24:23.888Z,37.83
2022-09-02T17:26:56.446Z,37.75
2022-09-02T17:29:53.623Z,38.06
2022-09-02T17:32:12.998Z,38.42
2022-09-02T17:34:39.836Z,38.78
2022-09-02T17:37:06.651Z,39.06
2022-09-02T17:39:36.907Z,39.18
2022-09-02T17:42:06.716Z,39.35
2022-09-02T17:44:37.654Z,39.63
2022-09-02T17:47:09.662Z,40.12
2022-09-02T17:49:38.113Z,40.35
2022-09-02T17:52:07.703Z,41.06
2022-09-02T17:54:36.196Z,41.54
2022-09-02T17:57:10.265Z,42.18
2022-09-02T17:59:37.934Z,42.67
2022-09-02T18:02:20.076Z,43.35
2022-09-02T18:05:03.980Z,44.15
2022-09-02T18:08:01.453Z,44.88
2022-09-02T18:10:36.897Z,44.81
2022-09-02T18:13:13.451Z,45.63
2022-09-02T18:16:03.542Z,46.14
2022-09-02T18:18:30.804Z,46.34
2022-09-02T18:21:19.611Z,46.78
2022-09-02T18:24:07.970Z,47.26
2022-09-02T18:26:54.376Z,47.42
2022-09-02T18:29:39.473Z,47.54
2022-09-02T18:32:27.894Z,47.46
2022-09-02T18:35:19.878Z,47.45
2022-09-02T18:37:56.679Z,47.13
2022-09-02T18:40:47.871Z,47.27
2022-09-02T18:43:25.273Z,47.39
2022-09-02T18:45:56.582Z,47.45
2022-09-02T18:48:33.863Z,47.37
2022-09-02T18:51:07.088Z,47.46
2022-09-02T18:53:45.464Z,47.48
2022-09-02T18:56:13.650Z,47.63
2022-09-02T18:58:49.773Z,47.65
2022-09-02T19:01:27.476Z,47.53
2022-09-02T19:03:54.405Z,47.91
2022-09-02T19:06:23.908Z,47.78
2022-09-02T19:08:58.451Z,48.32
2022-09-02T19:11:27.270Z,48.02
2022-09-02T19:13:57.320Z,48.40
2022-09-02T19:16:32.272Z,48.68
2022-09-02T19:18:59.200Z,49.07
2022-09-02T19:21:47.577Z,49.13
2022-09-02T19:24:24.607Z,48.91
2022-09-02T19:27:01.510Z,48.80
2022-09-02T19:29:28.523Z,49.20
2022-09-02T19:31:55.471Z,49.34
2022-09-02T19:34:24.253Z,49.38
2022-09-02T19:36:52.716Z,49.50
2022-09-02T19:39:19.833Z,49.77
2022-09-02T19:41:48.181Z,49.85
2022-09-02T19:44:17.446Z,50.03
2022-09-02T19:49:31.368Z,50.26
2022-09-02T19:51:58.247Z,50.47
2022-09-02T19:54:25.113Z,50.80
2022-09-02T19:56:52.021Z,50.99
2022-09-02T19:59:19.407Z,51.15
2022-09-02T20:01:46.504Z,51.36
2022-09-02T20:04:13.597Z,51.70
2022-09-02T20:06:40.499Z,52.07
2022-09-02T20:09:07.566Z,51.89
2022-09-02T20:11:35.363Z,52.13
2022-09-02T20:14:05.408Z,52.09
2022-09-02T20:16:33.276Z,52.28
2022-09-02T20:19:00.414Z,52.57
2022-09-02T20:21:31.282Z,52.44
2022-09-02T20:24:01.890Z,52.78
2022-09-02T20:26:31.480Z,53.63
2022-09-02T20:29:27.998Z,53.41
2022-09-02T20:31:58.073Z,53.40
2022-09-02T20:34:49.314Z,53.42
2022-09-02T20:37:50.827Z,53.43
2022-09-02T20:41:04.436Z,53.34
2022-09-02T20:43:47.287Z,53.37
2022-09-02T20:46:29.687Z,53.30
2022-09-02T20:49:29.444Z,53.57
2022-09-02T20:52:01.051Z,53.60
2022-09-02T20:54:53.048Z,53.74
2022-09-02T20:57:44.338Z,53.86
2022-09-02T21:00:14.344Z,53.95
2022-09-02T21:02:54.525Z,54.03
2022-09-02T21:05:31.480Z,54.49
2022-09-02T21:08:08.590Z,54.58
2022-09-02T21:10:47.522Z,54.52
2022-09-02T21:13:19.362Z,54.47
2022-09-02T21:15:50.882Z,54.62
2022-09-02T21:18:34.181Z,54.73
2022-09-02T21:21:03.731Z,54.50
2022-09-02T21:23:41.946Z,54.34
2022-09-02T21:26:20.775Z,54.13
2022-09-02T21:29:01.572Z,53.99
2022-09-02T21:31:38.236Z,54.07
2022-09-02T21:34:33.044Z,54.18
2022-09-02T21:37:02.525Z,53.92
2022-09-02T21:39:35.398Z,53.90
2022-09-02T21:42:22.776Z,53.72
2022-09-02T21:44:57.877Z,53.73
2022-09-02T21:47:35.343Z,53.63
2022-09-02T21:50:08.422Z,53.16
2022-09-02T21:52:48.422Z,52.91
2022-09-02T21:55:15.770Z,53.37
2022-09-02T21:58:01.114Z,53.53
2022-09-02T22:00:28.123Z,52.95
2022-09-02T22:03:00.554Z,52.63
2022-09-02T22:05:44.298Z,52.27
2022-09-02T22:08:18.567Z,52.62
2022-09-02T22:11:10.437Z,52.46
2022-09-02T22:13:41.979Z,51.94
2022-09-02T22:16:13.288Z,51.73
2022-09-02T22:19:01.717Z,51.59
2022-09-02T22:21:31.388Z,51.52
2022-09-02T22:24:01.177Z,51.19
2022-09-02T22:26:44.653Z,50.93
2022-09-02T22:29:19.050Z,50.69
2022-09-02T22:31:48.649Z,50.66
2022-09-02T22:34:18.544Z,50.26
2022-09-02T22:36:56.450Z,50.08
2022-09-02T22:39:37.609Z,49.98
2022-09-02T22:42:12.076Z,49.94
2022-09-02T22:45:12.613Z,49.95
2022-09-02T22:48:05.833Z,50.05
2022-09-02T22:50:57.502Z,50.23
2022-09-02T22:53:24.360Z,49.86
2022-09-02T22:56:02.932Z,49.63
2022-09-02T22:58:57.143Z,49.29
2022-09-02T23:01:51.741Z,49.47
2022-09-02T23:04:38.899Z,49.53
2022-09-02T23:07:06.933Z,49.46
2022-09-02T23:09:38.800Z,49.38
2022-09-02T23:12:29.429Z,48.73
2022-09-02T23:15:08.940Z,48.39
2022-09-02T23:17:57.797Z,48.39
2022-09-02T23:20:48.266Z,48.52
2022-09-02T23:23:45.449Z,48.63
2022-09-02T23:26:19.835Z,48.62
2022-09-02T23:29:05.379Z,48.77
2022-09-02T23:31:32.768Z,48.74
2022-09-02T23:34:11.661Z,48.72
2022-09-02T23:36:52.542Z,48.79
2022-09-02T23:39:43.659Z,48.73
2022-09-02T23:42:11.986Z,48.80
2022-09-02T23:44:38.759Z,49.01
2022-09-02T23:47:37.662Z,49.35
2022-09-02T23:50:34.578Z,49.18
2022-09-02T23:53:14.067Z,49.16
2022-09-02T23:55:56.715Z,49.49
2022-09-02T23:58:48.854Z,49.44
